createdAt,value
2022-11-16T00:01:30.372Z,40.65
2022-11-16T00:04:18.173Z,41.22
2022-11-16T00:07:03.162Z,42.70
2022-11-16T00:09:41.792Z,42.47
2022-11-16T00:12:33.580Z,39.22
2022-11-16T00:15:16.595Z,40.75
2022-11-16T00:17:56.811Z,39.60
2022-11-16T00:20:43.575Z,36.95
2022-11-16T00:23:29.552Z,37.45
2022-11-16T00:26:10.834Z,40.80
2022-11-16T00:28:49.578Z,37.47
2022-11-16T00:31:38.116Z,40.08
2022-11-16T00:34:20.139Z,36.83
2022-11-16T00:37:09.659Z,37.83
2022-11-16T00:40:02.623Z,36.88
2022-11-16T00:42:41.918Z,41.00
2022-11-16T00:45:20.132Z,41.80
2022-11-16T00:48:02.071Z,41.38
2022-11-16T00:50:55.825Z,40.17
2022-11-16T00:53:42.240Z,39.38
2022-11-16T00:56:26.815Z,36.40
2022-11-16T00:59:09.594Z,37.97
2022-11-16T01:01:57.346Z,38.97
2022-11-16T01:04:57.267Z,37.08
2022-11-16T01:07:40.875Z,38.30
2022-11-16T01:10:24.816Z,38.13
2022-11-16T01:13:15.743Z,40.53
2022-11-16T01:16:07.594Z,39.70
2022-11-16T01:19:04.289Z,39.97
2022-11-16T01:21:47.448Z,40.00
2022-11-16T01:24:40.089Z,45.83
2022-11-16T01:27:20.848Z,43.08
2022-11-16T01:30:11.591Z,43.05
2022-11-16T01:32:55.099Z,45.83
2022-11-16T01:35:41.397Z,45.03
2022-11-16T01:38:17.269Z,44.55
2022-11-16T01:41:06.432Z,43.53
2022-11-16T01:44:20.953Z,44.60
2022-11-16T01:47:09.064Z,44.25
2022-11-16T01:50:13.587Z,42.97
2022-11-16T01:53:13.376Z,41.15
2022-11-16T01:56:04.000Z,41.30
2022-11-16T01:58:56.602Z,40.90
2022-11-16T02:01:42.349Z,40.88
2022-11-16T02:04:45.314Z,38.95
2022-11-16T02:08:08.271Z,38.88
2022-11-16T02:11:17.357Z,39.05
2022-11-16T02:14:41.876Z,38.80
2022-11-16T02:18:19.882Z,37.83
2022-11-16T02:21:25.557Z,38.15
2022-11-16T02:24:30.267Z,41.53
2022-11-16T02:27:41.758Z,41.58
2022-11-16T02:30:23.875Z,41.83
2022-11-16T02:33:20.440Z,41.35
2022-11-16T02:36:09.011Z,42.42
2022-11-16T02:39:05.244Z,42.08
2022-11-16T02:41:50.019Z,39.88
2022-11-16T02:44:56.215Z,40.15
2022-11-16T02:47:49.380Z,42.17
2022-11-16T02:50:38.875Z,39.90
2022-11-16T02:53:37.982Z,38.05
2022-11-16T02:56:22.197Z,37.17
2022-11-16T02:59:04.058Z,40.38
2022-11-16T03:01:54.401Z,39.35
2022-11-16T03:04:58.358Z,37.20
2022-11-16T03:07:57.765Z,36.65
2022-11-16T03:11:07.213Z,34.55
2022-11-16T03:13:52.512Z,34.30
2022-11-16T03:16:46.844Z,36.35
2022-11-16T03:19:47.580Z,33.08
2022-11-16T03:22:37.696Z,33.20
2022-11-16T03:25:21.555Z,33.95
2022-11-16T03:28:36.020Z,31.45
2022-11-16T03:31:39.150Z,34.92
2022-11-16T03:34:25.010Z,32.08
2022-11-16T03:37:12.424Z,33.78
2022-11-16T03:39:52.959Z,30.30
2022-11-16T03:42:30.113Z,33.25
2022-11-16T03:45:13.131Z,33.60
2022-11-16T03:48:01.594Z,33.80
2022-11-16T03:50:37.432Z,33.70
2022-11-16T03:53:22.085Z,32.72
2022-11-16T03:56:21.485Z,34.60
2022-11-16T03:58:59.742Z,30.30
2022-11-16T04:01:45.029Z,32.13
2022-11-16T04:04:45.606Z,32.70
2022-11-16T04:07:45.437Z,33.20
2022-11-16T04:10:47.405Z,34.08
2022-11-16T04:13:53.422Z,32.25
2022-11-16T04:16:52.800Z,33.53
2022-11-16T04:19:56.774Z,34.72
2022-11-16T04:23:12.221Z,35.25
2022-11-16T04:25:51.632Z,33.75
2022-11-16T04:28:40.550Z,35.72
2022-11-16T04:31:37.477Z,34.33
2022-11-16T04:34:40.833Z,33.13
2022-11-16T04:37:36.924Z,34.78
2022-11-16T04:40:23.855Z,36.88
2022-11-16T04:43:07.660Z,33.53
2022-11-16T04:46:08.342Z,32.75
2022-11-16T04:49:09.716Z,34.92
2022-11-16T04:51:52.286Z,34.58
2022-11-16T04:57:39.778Z,33.53
2022-11-16T05:00:26.114Z,34.38
2022-11-16T05:03:15.018Z,34.97
2022-11-16T05:06:05.870Z,34.63
2022-11-16T05:08:50.701Z,33.83
2022-11-16T05:11:35.099Z,33.15
2022-11-16T05:14:18.035Z,37.50
2022-11-16T05:16:57.964Z,34.17
2022-11-16T05:19:55.045Z,33.22
2022-11-16T05:22:42.547Z,33.78
2022-11-16T05:25:48.768Z,35.05
2022-11-16T05:28:32.994Z,32.40
2022-11-16T05:31:19.353Z,34.90
2022-11-16T05:34:11.456Z,39.55
2022-11-16T05:36:55.897Z,36.10
2022-11-16T05:39:46.247Z,37.65
2022-11-16T05:42:37.664Z,39.95
2022-11-16T05:45:29.742Z,36.20
2022-11-16T05:48:17.551Z,39.58
2022-11-16T05:50:58.928Z,38.75
2022-11-16T05:53:52.974Z,40.00
2022-11-16T05:56:30.894Z,38.08
2022-11-16T05:59:16.708Z,39.75
2022-11-16T06:02:07.253Z,38.13
2022-11-16T06:04:54.512Z,38.50
2022-11-16T06:07:51.270Z,37.13
2022-11-16T06:10:39.745Z,34.85
2022-11-16T06:13:30.583Z,34.72
2022-11-16T06:16:14.391Z,37.38
2022-11-16T06:18:56.931Z,38.58
2022-11-16T06:21:38.068Z,35.53
2022-11-16T06:24:27.217Z,35.58
2022-11-16T06:27:16.132Z,38.42
2022-11-16T06:30:05.215Z,36.08
2022-11-16T06:32:56.213Z,34.63
2022-11-16T06:35:42.289Z,34.35
2022-11-16T06:38:41.230Z,33.47
2022-11-16T06:41:32.471Z,31.60
2022-11-16T06:44:18.333Z,33.03
2022-11-16T06:47:12.207Z,34.00
2022-11-16T06:50:04.595Z,34.05
2022-11-16T06:53:07.597Z,33.75
2022-11-16T06:55:49.596Z,37.55
2022-11-16T06:58:59.765Z,37.83
2022-11-16T07:01:43.113Z,38.05
2022-11-16T07:04:28.623Z,40.60
2022-11-16T07:07:16.677Z,39.25
2022-11-16T07:10:13.213Z,40.00
2022-11-16T07:13:03.612Z,42.35
2022-11-16T07:15:44.057Z,40.83
2022-11-16T07:18:27.356Z,39.90
2022-11-16T07:21:04.936Z,40.38
2022-11-16T07:23:44.589Z,43.47
2022-11-16T07:26:33.642Z,38.63
2022-11-16T07:29:33.563Z,41.30
2022-11-16T07:32:29.205Z,41.17
2022-11-16T07:35:38.683Z,40.53
2022-11-16T07:38:31.855Z,39.75
2022-11-16T07:41:18.755Z,44.67
2022-11-16T07:44:24.614Z,40.30
2022-11-16T07:47:13.416Z,39.58
2022-11-16T07:49:54.566Z,44.47
2022-11-16T07:52:39.542Z,40.97
2022-11-16T07:55:27.164Z,43.00
2022-11-16T08:01:09.585Z,41.05
2022-11-16T08:04:07.594Z,41.15
2022-11-16T08:06:50.339Z,39.28
2022-11-16T08:09:28.958Z,39.50
2022-11-16T08:12:07.234Z,40.13
2022-11-16T08:14:54.645Z,38.70
2022-11-16T08:17:40.561Z,36.25
2022-11-16T08:20:25.883Z,36.88
2022-11-16T08:23:17.990Z,39.72
2022-11-16T08:26:10.563Z,37.45
2022-11-16T08:28:58.615Z,39.15
2022-11-16T08:31:50.344Z,39.17
2022-11-16T08:34:39.101Z,38.83
2022-11-16T08:37:26.271Z,45.25
2022-11-16T08:40:14.845Z,47.75
2022-11-16T08:43:00.747Z,42.88
2022-11-16T08:45:48.298Z,40.70
2022-11-16T08:48:36.998Z,38.15
2022-11-16T08:51:24.585Z,41.00
2022-11-16T08:54:13.890Z,40.05
2022-11-16T08:56:54.262Z,39.33
2022-11-16T08:59:37.340Z,39.85
2022-11-16T09:02:31.754Z,38.20
2022-11-16T09:05:26.984Z,40.13
2022-11-16T09:08:11.449Z,40.78
2022-11-16T09:10:58.450Z,41.00
2022-11-16T09:13:32.518Z,40.75
2022-11-16T09:16:34.402Z,40.38
2022-11-16T09:22:14.456Z,38.72
2022-11-16T09:25:11.286Z,35.67
2022-11-16T09:27:59.322Z,37.97
2022-11-16T09:30:44.636Z,38.13
2022-11-16T09:33:28.799Z,37.92
2022-11-16T09:36:16.317Z,40.72
2022-11-16T09:42:28.859Z,37.28
2022-11-16T09:45:17.746Z,36.63
2022-11-16T09:48:07.402Z,39.97
2022-11-16T09:51:10.728Z,37.92
2022-11-16T09:54:39.579Z,36.45
2022-11-16T09:57:34.126Z,36.00
2022-11-16T10:00:33.600Z,37.03
2022-11-16T10:03:40.476Z,34.40
2022-11-16T10:06:53.033Z,36.22
2022-11-16T10:09:45.943Z,35.08
2022-11-16T10:12:47.309Z,38.17
2022-11-16T10:16:04.068Z,38.47
2022-11-16T10:19:35.468Z,39.53
2022-11-16T10:22:30.883Z,37.42
2022-11-16T10:25:33.161Z,38.58
2022-11-16T10:28:28.068Z,36.50
2022-11-16T10:31:26.445Z,38.28
2022-11-16T10:34:13.274Z,40.47
2022-11-16T10:37:01.395Z,36.13
2022-11-16T10:39:46.079Z,39.63
2022-11-16T10:42:36.861Z,36.65
2022-11-16T10:45:34.548Z,37.83
2022-11-16T10:48:33.682Z,36.28
2022-11-16T10:51:17.556Z,38.08
2022-11-16T10:54:15.979Z,40.80
2022-11-16T10:57:19.221Z,37.53
2022-11-16T11:00:11.182Z,41.58
2022-11-16T11:02:57.558Z,39.38
2022-11-16T11:05:52.571Z,39.22
2022-11-16T11:08:46.928Z,36.92
2022-11-16T11:11:43.817Z,39.00
2022-11-16T11:14:38.723Z,39.80
2022-11-16T11:17:20.550Z,37.90
2022-11-16T11:20:25.817Z,38.78
2022-11-16T11:23:11.192Z,41.03
2022-11-16T11:26:37.085Z,41.70
2022-11-16T11:29:37.775Z,39.72
2022-11-16T11:32:23.921Z,41.75
2022-11-16T11:35:07.601Z,38.75
2022-11-16T11:38:07.284Z,40.38
2022-11-16T11:41:11.766Z,46.10
2022-11-16T11:44:04.235Z,42.33
2022-11-16T11:47:28.523Z,44.03
2022-11-16T11:50:01.409Z,41.95
2022-11-16T11:52:50.545Z,42.90
2022-11-16T11:55:42.967Z,42.75
2022-11-16T11:58:49.734Z,48.17
2022-11-16T12:02:12.131Z,49.95
2022-11-16T12:05:07.014Z,46.03
2022-11-16T12:08:03.536Z,43.50
2022-11-16T12:11:34.137Z,43.75
2022-11-16T12:14:46.708Z,55.97
2022-11-16T12:17:35.868Z,43.40
2022-11-16T12:20:38.302Z,43.65
2022-11-16T12:23:59.883Z,39.38
2022-11-16T12:26:51.882Z,40.63
2022-11-16T12:30:12.377Z,40.35
2022-11-16T12:33:37.606Z,39.08
2022-11-16T12:36:21.772Z,37.30
2022-11-16T12:39:14.035Z,39.25
2022-11-16T12:42:14.070Z,42.00
2022-11-16T12:45:34.285Z,39.75
2022-11-16T12:48:37.037Z,39.97
2022-11-16T12:51:42.947Z,40.05
2022-11-16T12:54:29.609Z,40.72
2022-11-16T12:57:29.613Z,40.80
2022-11-16T13:00:14.430Z,40.00
2022-11-16T13:03:18.997Z,43.38
2022-11-16T13:06:16.430Z,38.13
2022-11-16T13:09:16.113Z,39.85
2022-11-16T13:12:06.848Z,38.65
2022-11-16T13:15:03.778Z,37.17
2022-11-16T13:18:04.462Z,35.50
2022-11-16T13:21:05.127Z,38.35
2022-11-16T13:24:30.517Z,36.17
2022-11-16T13:27:35.610Z,34.72
2022-11-16T13:30:42.413Z,34.35
2022-11-16T13:33:58.208Z,37.70
2022-11-16T13:36:48.109Z,33.85
2022-11-16T13:39:49.084Z,38.13
2022-11-16T13:42:39.128Z,35.80
2022-11-16T13:45:34.182Z,34.47
2022-11-16T13:48:35.241Z,34.10
2022-11-16T13:51:31.770Z,37.10
2022-11-16T13:54:46.083Z,34.90
2022-11-16T14:00:32.113Z,31.25
2022-11-16T14:03:27.398Z,32.70
2022-11-16T14:06:11.030Z,35.33
2022-11-16T14:09:20.226Z,33.35
2022-11-16T14:12:21.114Z,35.03
2022-11-16T14:15:13.877Z,34.42
2022-11-16T14:18:44.316Z,33.60
2022-11-16T14:21:57.436Z,30.90
2022-11-16T14:25:02.939Z,33.35
2022-11-16T14:28:18.585Z,33.22
2022-11-16T14:31:13.000Z,30.65
2022-11-16T14:34:01.287Z,34.72
2022-11-16T14:36:53.188Z,35.70
2022-11-16T14:39:50.318Z,34.88
2022-11-16T14:42:48.359Z,33.67
2022-11-16T14:46:27.059Z,33.13
2022-11-16T14:49:20.447Z,37.10
2022-11-16T14:52:17.633Z,34.03
2022-11-16T14:55:24.716Z,35.85
2022-11-16T14:58:36.402Z,32.72
2022-11-16T15:01:34.119Z,33.13
2022-11-16T15:04:21.533Z,35.25
2022-11-16T15:07:21.001Z,35.28
2022-11-16T15:10:02.305Z,35.00
2022-11-16T15:13:06.112Z,33.38
2022-11-16T15:16:02.040Z,32.65
2022-11-16T15:18:52.662Z,34.55
2022-11-16T15:21:42.816Z,31.58
2022-11-16T15:24:31.568Z,38.40
2022-11-16T15:27:39.677Z,40.83
2022-11-16T15:30:32.074Z,39.60
2022-11-16T15:33:51.536Z,38.33
2022-11-16T15:36:48.747Z,33.80
2022-11-16T15:39:39.237Z,36.22
2022-11-16T15:42:26.534Z,33.63
2022-11-16T15:45:27.947Z,34.67
2022-11-16T15:48:11.710Z,33.70
2022-11-16T15:51:58.035Z,31.92
2022-11-16T15:54:56.337Z,34.25
2022-11-16T15:57:46.441Z,33.13
2022-11-16T16:00:35.263Z,33.58
2022-11-16T16:03:48.932Z,32.92
2022-11-16T16:07:00.866Z,38.13
2022-11-16T16:09:49.885Z,35.30
2022-11-16T16:12:42.548Z,36.33
2022-11-16T16:16:10.443Z,34.15
2022-11-16T16:18:57.686Z,34.63
2022-11-16T16:22:02.822Z,37.45
2022-11-16T16:24:50.575Z,37.30
2022-11-16T16:27:57.087Z,43.75
2022-11-16T16:30:35.175Z,43.30
2022-11-16T16:33:28.817Z,46.05
2022-11-16T16:36:18.412Z,56.80
2022-11-16T16:39:01.506Z,47.20
2022-11-16T16:41:47.957Z,46.15
2022-11-16T16:44:32.566Z,43.03
2022-11-16T16:47:12.415Z,40.17
2022-11-16T16:50:02.476Z,38.28
2022-11-16T16:52:52.566Z,39.97
2022-11-16T16:55:37.470Z,41.20
2022-11-16T16:58:21.544Z,40.60
2022-11-16T17:01:10.007Z,42.78
2022-11-16T17:04:02.091Z,44.53
2022-11-16T17:06:42.241Z,43.63
2022-11-16T17:09:33.963Z,48.80
2022-11-16T17:12:17.802Z,46.40
2022-11-16T17:15:01.863Z,45.30
2022-11-16T17:17:43.635Z,55.03
2022-11-16T17:20:30.302Z,43.30
2022-11-16T17:25:53.564Z,44.58
2022-11-16T17:28:35.116Z,44.95
2022-11-16T17:31:39.297Z,42.38
2022-11-16T17:34:23.739Z,42.90
2022-11-16T17:37:22.959Z,43.47
2022-11-16T17:40:13.526Z,45.92
2022-11-16T17:43:04.224Z,43.85
2022-11-16T17:45:52.917Z,48.80
2022-11-16T17:48:33.410Z,46.13
2022-11-16T17:51:09.262Z,47.65
2022-11-16T17:57:00.260Z,48.40
2022-11-16T17:59:50.594Z,48.75
2022-11-16T18:02:32.222Z,46.17
2022-11-16T18:05:31.646Z,45.35
2022-11-16T18:08:18.424Z,59.00
2022-11-16T18:11:02.876Z,47.45
2022-11-16T18:13:49.552Z,45.95
2022-11-16T18:16:36.045Z,43.90
2022-11-16T18:19:26.346Z,42.55
2022-11-16T18:22:12.652Z,41.53
2022-11-16T18:27:35.574Z,42.92
2022-11-16T18:30:16.885Z,39.85
2022-11-16T18:33:01.595Z,39.55
2022-11-16T18:35:45.317Z,41.85
2022-11-16T18:38:31.353Z,36.55
2022-11-16T18:41:30.951Z,41.20
2022-11-16T18:44:22.779Z,40.78
2022-11-16T18:47:06.605Z,38.08
2022-11-16T18:49:56.886Z,38.92
2022-11-16T18:52:55.404Z,36.00
2022-11-16T18:55:39.587Z,37.35
2022-11-16T19:01:34.630Z,35.78
2022-11-16T19:04:20.091Z,36.15
2022-11-16T19:07:07.844Z,36.42
2022-11-16T19:09:54.108Z,38.67
2022-11-16T19:12:38.114Z,41.50
2022-11-16T19:15:31.626Z,43.60
2022-11-16T19:18:22.184Z,41.75
2022-11-16T19:21:22.991Z,46.22
2022-11-16T19:24:02.557Z,52.10
2022-11-16T19:26:40.148Z,45.30
2022-11-16T19:29:38.758Z,40.42
2022-11-16T19:32:28.839Z,42.75
2022-11-16T19:35:14.506Z,38.65
2022-11-16T19:37:54.814Z,38.88
2022-11-16T19:40:43.721Z,36.70
2022-11-16T19:43:38.619Z,38.10
2022-11-16T19:46:39.352Z,41.03
2022-11-16T19:49:25.798Z,51.88
2022-11-16T19:52:21.676Z,60.28
2022-11-16T19:55:07.520Z,40.58
2022-11-16T19:57:56.091Z,41.58
2022-11-16T20:00:36.723Z,40.88
2022-11-16T20:03:38.273Z,42.47
2022-11-16T20:06:48.711Z,44.38
2022-11-16T20:09:32.739Z,42.60
2022-11-16T20:14:55.532Z,42.40
2022-11-16T20:17:51.031Z,46.38
2022-11-16T20:20:47.541Z,43.95
2022-11-16T20:23:37.415Z,48.47
2022-11-16T20:26:22.930Z,50.72
2022-11-16T20:29:02.786Z,45.95
2022-11-16T20:32:00.005Z,47.67
2022-11-16T20:34:57.657Z,44.75
2022-11-16T20:37:42.850Z,44.53
2022-11-16T20:40:36.429Z,41.95
2022-11-16T20:43:21.568Z,43.47
2022-11-16T20:46:12.579Z,43.15
2022-11-16T20:48:58.885Z,45.60
2022-11-16T20:51:51.741Z,48.00
2022-11-16T20:54:32.954Z,45.42
2022-11-16T20:57:23.111Z,44.38
2022-11-16T21:00:12.582Z,42.17
2022-11-16T21:03:10.537Z,41.50
2022-11-16T21:06:03.400Z,38.13
2022-11-16T21:08:58.460Z,45.25
2022-11-16T21:12:01.550Z,44.05
2022-11-16T21:14:47.294Z,45.45
2022-11-16T21:17:28.923Z,44.30
2022-11-16T21:20:27.525Z,50.08
2022-11-16T21:23:06.749Z,55.35
2022-11-16T21:25:46.555Z,54.35
2022-11-16T21:28:31.525Z,51.33
2022-11-16T21:31:14.484Z,48.25
2022-11-16T21:34:06.039Z,51.10
2022-11-16T21:39:36.319Z,40.93
2022-11-16T21:42:25.468Z,46.75
2022-11-16T21:45:13.137Z,53.33
2022-11-16T21:47:58.527Z,44.72
2022-11-16T21:50:33.247Z,43.25
2022-11-16T21:53:13.889Z,42.60
2022-11-16T21:56:07.203Z,46.08
2022-11-16T21:59:02.558Z,43.67
2022-11-16T22:02:01.027Z,43.78
2022-11-16T22:05:16.379Z,42.60
2022-11-16T22:08:08.357Z,41.47
2022-11-16T22:11:00.628Z,43.63
2022-11-16T22:13:44.611Z,44.38
2022-11-16T22:16:25.079Z,43.50
2022-11-16T22:19:17.503Z,42.45
2022-11-16T22:22:07.627Z,40.35
2022-11-16T22:24:58.743Z,40.80
2022-11-16T22:28:05.929Z,37.33
2022-11-16T22:31:27.525Z,40.72
2022-11-16T22:34:05.467Z,40.05
2022-11-16T22:36:48.567Z,41.38
2022-11-16T22:39:38.050Z,42.00
2022-11-16T22:42:29.502Z,38.58
2022-11-16T22:45:28.643Z,40.38
2022-11-16T22:48:24.401Z,42.90
2022-11-16T22:51:36.851Z,39.42
2022-11-16T22:54:27.370Z,36.28
2022-11-16T22:57:06.953Z,35.30
2022-11-16T22:59:57.607Z,34.40
2022-11-16T23:02:35.219Z,35.78
2022-11-16T23:05:40.256Z,32.70
2022-11-16T23:08:33.904Z,33.05
2022-11-16T23:11:28.513Z,31.10
2022-11-16T23:14:20.474Z,33.63
2022-11-16T23:16:58.570Z,34.53
2022-11-16T23:20:06.334Z,34.60
2022-11-16T23:23:02.708Z,33.92
2022-11-16T23:25:59.267Z,32.28
2022-11-16T23:28:42.556Z,33.40
2022-11-16T23:31:33.563Z,24.00
2022-11-16T23:34:32.520Z,29.80
2022-11-16T23:37:14.028Z,29.85
2022-11-16T23:39:59.985Z,30.45
2022-11-16T23:43:05.269Z,33.63
2022-11-16T23:45:50.835Z,30.42
2022-11-16T23:48:33.002Z,32.30
2022-11-16T23:51:17.330Z,29.73
2022-11-16T23:54:15.624Z,30.45
2022-11-16T23:57:05.297Z,30.30
2022-11-16T23:59:41.525Z,32.28
